sensor_id;sensor_type;location;lat;lon;timestamp;P1;durP1;ratioP1;P2;durP2;ratioP2
11086;SDS011;5597;47.588;9.642;2023-08-20T00:01:05;7.77;;;6.77;;
11086;SDS011;5597;47.588;9.642;2023-08-20T00:03:33;9.90;;;6.57;;
11086;SDS011;5597;47.588;9.642;2023-08-20T00:05:59;7.07;;;6.47;;
11086;SDS011;5597;47.588;9.642;2023-08-20T00:08:24;7.57;;;6.70;;
11086;SDS011;5597;47.588;9.642;2023-08-20T00:10:50;7.13;;;6.47;;
11086;SDS011;5597;47.588;9.642;2023-08-20T00:13:16;7.03;;;6.07;;
11086;SDS011;5597;47.588;9.642;2023-08-20T00:15:41;8.47;;;6.47;;
11086;SDS011;5597;47.588;9.642;2023-08-20T00:18:07;8.63;;;6.90;;
11086;SDS011;5597;47.588;9.642;2023-08-20T00:20:33;9.03;;;7.37;;
11086;SDS011;5597;47.588;9.642;2023-08-20T00:23:00;8.00;;;7.20;;
11086;SDS011;5597;47.588;9.642;2023-08-20T00:25:25;8.03;;;6.60;;
11086;SDS011;5597;47.588;9.642;2023-08-20T00:27:51;7.37;;;6.67;;
11086;SDS011;5597;47.588;9.642;2023-08-20T00:30:17;7.20;;;6.50;;
11086;SDS011;5597;47.588;9.642;2023-08-20T00:32:42;7.70;;;7.00;;
11086;SDS011;5597;47.588;9.642;2023-08-20T00:35:08;9.97;;;7.17;;
11086;SDS011;5597;47.588;9.642;2023-08-20T00:37:34;7.63;;;6.83;;
11086;SDS011;5597;47.588;9.642;2023-08-20T00:40:00;8.73;;;6.80;;
11086;SDS011;5597;47.588;9.642;2023-08-20T00:42:26;7.20;;;6.13;;
11086;SDS011;5597;47.588;9.642;2023-08-20T00:44:52;7.13;;;6.50;;
11086;SDS011;5597;47.588;9.642;2023-08-20T00:47:18;7.80;;;7.10;;
11086;SDS011;5597;47.588;9.642;2023-08-20T00:49:45;9.07;;;7.27;;
11086;SDS011;5597;47.588;9.642;2023-08-20T00:52:11;8.50;;;7.60;;
11086;SDS011;5597;47.588;9.642;2023-08-20T00:54:41;7.90;;;7.13;;
11086;SDS011;5597;47.588;9.642;2023-08-20T00:57:10;7.07;;;6.47;;
11086;SDS011;5597;47.588;9.642;2023-08-20T00:59:36;7.13;;;6.50;;
11086;SDS011;5597;47.588;9.642;2023-08-20T01:02:02;7.70;;;6.50;;
11086;SDS011;5597;47.588;9.642;2023-08-20T01:04:31;6.97;;;6.37;;
11086;SDS011;5597;47.588;9.642;2023-08-20T01:07:03;7.30;;;6.60;;
11086;SDS011;5597;47.588;9.642;2023-08-20T01:12:29;8.33;;;7.47;;
11086;SDS011;5597;47.588;9.642;2023-08-20T01:14:56;9.73;;;7.37;;
11086;SDS011;5597;47.588;9.642;2023-08-20T01:17:21;7.40;;;6.70;;
11086;SDS011;5597;47.588;9.642;2023-08-20T01:19:47;7.60;;;6.90;;
11086;SDS011;5597;47.588;9.642;2023-08-20T01:30:07;8.17;;;7.33;;
11086;SDS011;5597;47.588;9.642;2023-08-20T01:32:35;8.00;;;7.10;;
11086;SDS011;5597;47.588;9.642;2023-08-20T01:35:02;7.83;;;7.03;;
11086;SDS011;5597;47.588;9.642;2023-08-20T01:37:28;7.80;;;6.97;;
11086;SDS011;5597;47.588;9.642;2023-08-20T01:39:53;7.30;;;6.63;;
11086;SDS011;5597;47.588;9.642;2023-08-20T01:42:19;7.60;;;6.80;;
11086;SDS011;5597;47.588;9.642;2023-08-20T01:44:45;10.00;;;8.30;;
11086;SDS011;5597;47.588;9.642;2023-08-20T01:47:10;8.47;;;7.67;;
11086;SDS011;5597;47.588;9.642;2023-08-20T01:49:36;8.30;;;7.20;;
11086;SDS011;5597;47.588;9.642;2023-08-20T01:52:01;7.50;;;6.80;;
11086;SDS011;5597;47.588;9.642;2023-08-20T01:54:28;7.57;;;6.90;;
11086;SDS011;5597;47.588;9.642;2023-08-20T01:56:54;9.00;;;7.50;;
11086;SDS011;5597;47.588;9.642;2023-08-20T01:59:21;7.67;;;7.00;;
11086;SDS011;5597;47.588;9.642;2023-08-20T02:01:47;7.83;;;6.80;;
11086;SDS011;5597;47.588;9.642;2023-08-20T02:04:13;7.57;;;6.77;;
11086;SDS011;5597;47.588;9.642;2023-08-20T02:06:38;9.23;;;6.70;;
11086;SDS011;5597;47.588;9.642;2023-08-20T02:09:04;8.63;;;6.93;;
11086;SDS011;5597;47.588;9.642;2023-08-20T02:11:29;8.37;;;7.20;;
11086;SDS011;5597;47.588;9.642;2023-08-20T02:13:58;7.57;;;6.97;;
11086;SDS011;5597;47.588;9.642;2023-08-20T02:16:23;8.13;;;7.33;;
11086;SDS011;5597;47.588;9.642;2023-08-20T02:18:49;10.60;;;7.47;;
11086;SDS011;5597;47.588;9.642;2023-08-20T02:21:14;7.80;;;7.00;;
11086;SDS011;5597;47.588;9.642;2023-08-20T02:23:40;8.97;;;7.20;;
11086;SDS011;5597;47.588;9.642;2023-08-20T02:26:05;8.67;;;7.17;;
11086;SDS011;5597;47.588;9.642;2023-08-20T02:28:31;7.97;;;7.17;;
11086;SDS011;5597;47.588;9.642;2023-08-20T02:30:57;8.53;;;7.67;;
11086;SDS011;5597;47.588;9.642;2023-08-20T02:33:22;8.90;;;7.83;;
11086;SDS011;5597;47.588;9.642;2023-08-20T02:35:48;8.50;;;7.53;;
11086;SDS011;5597;47.588;9.642;2023-08-20T02:38:13;10.70;;;8.30;;
11086;SDS011;5597;47.588;9.642;2023-08-20T02:40:42;7.97;;;7.10;;
11086;SDS011;5597;47.588;9.642;2023-08-20T02:43:09;8.30;;;7.50;;
11086;SDS011;5597;47.588;9.642;2023-08-20T02:45:41;10.53;;;8.23;;
11086;SDS011;5597;47.588;9.642;2023-08-20T02:48:07;10.67;;;8.27;;
11086;SDS011;5597;47.588;9.642;2023-08-20T02:50:33;9.20;;;7.67;;
11086;SDS011;5597;47.588;9.642;2023-08-20T02:52:58;7.20;;;6.60;;
11086;SDS011;5597;47.588;9.642;2023-08-20T02:55:24;8.37;;;7.63;;
11086;SDS011;5597;47.588;9.642;2023-08-20T02:57:49;8.03;;;6.80;;
11086;SDS011;5597;47.588;9.642;2023-08-20T03:00:15;8.13;;;7.30;;
11086;SDS011;5597;47.588;9.642;2023-08-20T03:02:40;8.87;;;6.80;;
11086;SDS011;5597;47.588;9.642;2023-08-20T03:05:07;7.77;;;7.00;;
11086;SDS011;5597;47.588;9.642;2023-08-20T03:07:34;7.60;;;6.83;;
11086;SDS011;5597;47.588;9.642;2023-08-20T03:09:59;7.20;;;6.60;;
11086;SDS011;5597;47.588;9.642;2023-08-20T03:12:25;7.50;;;6.80;;
11086;SDS011;5597;47.588;9.642;2023-08-20T03:14:50;7.53;;;6.83;;
11086;SDS011;5597;47.588;9.642;2023-08-20T03:17:16;7.03;;;6.40;;
11086;SDS011;5597;47.588;9.642;2023-08-20T03:19:53;8.27;;;7.57;;
11086;SDS011;5597;47.588;9.642;2023-08-20T03:22:20;9.00;;;7.80;;
11086;SDS011;5597;47.588;9.642;2023-08-20T03:24:45;7.37;;;6.73;;
11086;SDS011;5597;47.588;9.642;2023-08-20T03:27:11;7.67;;;6.87;;
11086;SDS011;5597;47.588;9.642;2023-08-20T03:29:36;7.37;;;6.77;;
11086;SDS011;5597;47.588;9.642;2023-08-20T03:32:02;7.73;;;6.70;;
11086;SDS011;5597;47.588;9.642;2023-08-20T03:34:27;8.43;;;7.63;;
11086;SDS011;5597;47.588;9.642;2023-08-20T03:36:53;9.17;;;7.30;;
11086;SDS011;5597;47.588;9.642;2023-08-20T03:39:18;9.70;;;7.20;;
11086;SDS011;5597;47.588;9.642;2023-08-20T03:41:44;8.30;;;7.53;;
11086;SDS011;5597;47.588;9.642;2023-08-20T03:44:10;8.10;;;7.30;;
11086;SDS011;5597;47.588;9.642;2023-08-20T03:46:35;8.13;;;7.33;;
11086;SDS011;5597;47.588;9.642;2023-08-20T03:49:01;7.63;;;6.93;;
11086;SDS011;5597;47.588;9.642;2023-08-20T03:51:27;7.50;;;6.80;;
11086;SDS011;5597;47.588;9.642;2023-08-20T03:53:52;7.43;;;6.60;;
11086;SDS011;5597;47.588;9.642;2023-08-20T03:56:18;7.80;;;7.10;;
11086;SDS011;5597;47.588;9.642;2023-08-20T03:58:43;7.50;;;6.80;;
11086;SDS011;5597;47.588;9.642;2023-08-20T04:01:09;6.90;;;6.30;;
11086;SDS011;5597;47.588;9.642;2023-08-20T04:03:34;7.30;;;6.60;;
11086;SDS011;5597;47.588;9.642;2023-08-20T04:06:00;7.57;;;6.87;;
11086;SDS011;5597;47.588;9.642;2023-08-20T04:08:25;7.73;;;6.97;;
11086;SDS011;5597;47.588;9.642;2023-08-20T04:10:51;8.87;;;7.20;;
11086;SDS011;5597;47.588;9.642;2023-08-20T04:13:17;7.83;;;6.97;;
11086;SDS011;5597;47.588;9.642;2023-08-20T04:15:43;7.67;;;6.93;;
11086;SDS011;5597;47.588;9.642;2023-08-20T04:18:09;7.27;;;6.27;;
11086;SDS011;5597;47.588;9.642;2023-08-20T04:20:34;7.93;;;7.13;;
11086;SDS011;5597;47.588;9.642;2023-08-20T04:23:01;6.80;;;6.20;;
11086;SDS011;5597;47.588;9.642;2023-08-20T04:25:26;7.53;;;6.83;;
11086;SDS011;5597;47.588;9.642;2023-08-20T04:27:52;7.10;;;6.40;;
11086;SDS011;5597;47.588;9.642;2023-08-20T04:30:17;7.47;;;6.57;;
11086;SDS011;5597;47.588;9.642;2023-08-20T04:32:43;8.17;;;7.37;;
11086;SDS011;5597;47.588;9.642;2023-08-20T04:35:09;7.80;;;7.10;;
11086;SDS011;5597;47.588;9.642;2023-08-20T04:37:35;8.10;;;7.00;;
11086;SDS011;5597;47.588;9.642;2023-08-20T04:40:01;7.03;;;6.40;;
11086;SDS011;5597;47.588;9.642;2023-08-20T04:42:29;7.40;;;6.70;;
11086;SDS011;5597;47.588;9.642;2023-08-20T04:44:56;8.53;;;6.90;;
11086;SDS011;5597;47.588;9.642;2023-08-20T04:47:22;7.00;;;6.30;;
11086;SDS011;5597;47.588;9.642;2023-08-20T04:49:47;8.17;;;6.60;;
11086;SDS011;5597;47.588;9.642;2023-08-20T04:52:13;6.73;;;6.13;;
11086;SDS011;5597;47.588;9.642;2023-08-20T04:54:38;6.73;;;6.03;;
11086;SDS011;5597;47.588;9.642;2023-08-20T04:57:04;6.63;;;6.10;;
11086;SDS011;5597;47.588;9.642;2023-08-20T04:59:30;8.37;;;6.90;;
11086;SDS011;5597;47.588;9.642;2023-08-20T05:01:55;7.73;;;7.03;;
11086;SDS011;5597;47.588;9.642;2023-08-20T05:04:21;8.20;;;7.50;;
11086;SDS011;5597;47.588;9.642;2023-08-20T05:06:47;7.33;;;6.63;;
11086;SDS011;5597;47.588;9.642;2023-08-20T05:09:12;7.37;;;6.70;;
11086;SDS011;5597;47.588;9.642;2023-08-20T05:11:38;7.90;;;7.17;;
11086;SDS011;5597;47.588;9.642;2023-08-20T05:14:04;7.27;;;6.67;;
11086;SDS011;5597;47.588;9.642;2023-08-20T05:16:29;7.43;;;6.83;;
11086;SDS011;5597;47.588;9.642;2023-08-20T05:18:55;7.30;;;6.60;;
11086;SDS011;5597;47.588;9.642;2023-08-20T05:21:20;7.33;;;6.60;;
11086;SDS011;5597;47.588;9.642;2023-08-20T05:23:47;8.63;;;7.73;;
11086;SDS011;5597;47.588;9.642;2023-08-20T05:26:13;7.90;;;7.20;;
11086;SDS011;5597;47.588;9.642;2023-08-20T05:28:38;8.47;;;6.83;;
11086;SDS011;5597;47.588;9.642;2023-08-20T05:31:04;8.20;;;7.40;;
11086;SDS011;5597;47.588;9.642;2023-08-20T05:33:29;8.03;;;7.23;;
11086;SDS011;5597;47.588;9.642;2023-08-20T05:35:55;7.80;;;6.93;;
11086;SDS011;5597;47.588;9.642;2023-08-20T05:38:20;7.30;;;6.60;;
11086;SDS011;5597;47.588;9.642;2023-08-20T05:40:46;9.50;;;7.90;;
11086;SDS011;5597;47.588;9.642;2023-08-20T05:43:11;8.67;;;7.77;;
11086;SDS011;5597;47.588;9.642;2023-08-20T05:45:37;8.83;;;7.70;;
11086;SDS011;5597;47.588;9.642;2023-08-20T05:48:02;8.13;;;7.33;;
11086;SDS011;5597;47.588;9.642;2023-08-20T05:50:28;8.57;;;7.53;;
11086;SDS011;5597;47.588;9.642;2023-08-20T05:52:54;8.53;;;7.10;;
11086;SDS011;5597;47.588;9.642;2023-08-20T05:55:19;7.70;;;7.00;;
11086;SDS011;5597;47.588;9.642;2023-08-20T05:57:45;10.07;;;7.70;;
11086;SDS011;5597;47.588;9.642;2023-08-20T06:00:10;8.90;;;7.97;;
11086;SDS011;5597;47.588;9.642;2023-08-20T06:02:37;9.00;;;7.23;;
11086;SDS011;5597;47.588;9.642;2023-08-20T06:05:03;7.80;;;6.93;;
11086;SDS011;5597;47.588;9.642;2023-08-20T06:07:31;7.80;;;7.17;;
11086;SDS011;5597;47.588;9.642;2023-08-20T06:09:57;7.63;;;6.93;;
11086;SDS011;5597;47.588;9.642;2023-08-20T06:12:23;7.43;;;6.50;;
11086;SDS011;5597;47.588;9.642;2023-08-20T06:14:49;7.63;;;6.77;;
11086;SDS011;5597;47.588;9.642;2023-08-20T06:17:14;7.40;;;6.80;;
11086;SDS011;5597;47.588;9.642;2023-08-20T06:19:40;6.67;;;6.00;;
11086;SDS011;5597;47.588;9.642;2023-08-20T06:22:06;6.83;;;6.13;;
11086;SDS011;5597;47.588;9.642;2023-08-20T06:24:31;6.60;;;6.10;;
11086;SDS011;5597;47.588;9.642;2023-08-20T06:26:57;6.43;;;5.93;;
11086;SDS011;5597;47.588;9.642;2023-08-20T06:29:23;7.07;;;6.47;;
11086;SDS011;5597;47.588;9.642;2023-08-20T06:31:48;8.47;;;6.77;;
11086;SDS011;5597;47.588;9.642;2023-08-20T06:34:15;6.93;;;6.23;;
11086;SDS011;5597;47.588;9.642;2023-08-20T06:36:41;6.77;;;6.17;;
11086;SDS011;5597;47.588;9.642;2023-08-20T06:39:07;6.50;;;5.93;;
11086;SDS011;5597;47.588;9.642;2023-08-20T06:41:33;6.30;;;5.70;;
11086;SDS011;5597;47.588;9.642;2023-08-20T06:43:59;6.53;;;5.93;;
11086;SDS011;5597;47.588;9.642;2023-08-20T06:46:24;6.40;;;5.80;;
11086;SDS011;5597;47.588;9.642;2023-08-20T06:48:50;6.73;;;6.13;;
11086;SDS011;5597;47.588;9.642;2023-08-20T06:51:18;7.30;;;6.23;;
11086;SDS011;5597;47.588;9.642;2023-08-20T06:53:45;7.70;;;6.83;;
11086;SDS011;5597;47.588;9.642;2023-08-20T06:56:11;7.03;;;6.33;;
11086;SDS011;5597;47.588;9.642;2023-08-20T06:58:40;8.43;;;6.73;;
11086;SDS011;5597;47.588;9.642;2023-08-20T07:01:07;6.23;;;5.73;;
11086;SDS011;5597;47.588;9.642;2023-08-20T07:03:37;7.00;;;6.40;;
11086;SDS011;5597;47.588;9.642;2023-08-20T07:06:06;6.67;;;5.97;;
11086;SDS011;5597;47.588;9.642;2023-08-20T07:08:34;6.30;;;5.70;;
11086;SDS011;5597;47.588;9.642;2023-08-20T07:11:00;6.63;;;6.10;;
11086;SDS011;5597;47.588;9.642;2023-08-20T07:13:25;7.57;;;6.77;;
11086;SDS011;5597;47.588;9.642;2023-08-20T07:15:51;7.67;;;6.93;;
11086;SDS011;5597;47.588;9.642;2023-08-20T07:18:17;6.70;;;6.10;;
11086;SDS011;5597;47.588;9.642;2023-08-20T07:20:43;7.20;;;6.50;;
11086;SDS011;5597;47.588;9.642;2023-08-20T07:23:09;6.80;;;6.20;;
11086;SDS011;5597;47.588;9.642;2023-08-20T07:25:39;8.40;;;6.70;;
11086;SDS011;5597;47.588;9.642;2023-08-20T07:28:07;9.40;;;6.70;;
11086;SDS011;5597;47.588;9.642;2023-08-20T07:30:34;10.00;;;6.73;;
11086;SDS011;5597;47.588;9.642;2023-08-20T07:33:00;7.40;;;6.60;;
11086;SDS011;5597;47.588;9.642;2023-08-20T07:35:26;6.57;;;5.97;;
11086;SDS011;5597;47.588;9.642;2023-08-20T07:37:52;6.80;;;6.20;;
11086;SDS011;5597;47.588;9.642;2023-08-20T07:40:17;6.20;;;5.67;;
11086;SDS011;5597;47.588;9.642;2023-08-20T07:42:43;6.33;;;5.73;;
11086;SDS011;5597;47.588;9.642;2023-08-20T07:45:09;6.13;;;5.53;;
11086;SDS011;5597;47.588;9.642;2023-08-20T07:47:35;6.53;;;5.63;;
11086;SDS011;5597;47.588;9.642;2023-08-20T07:50:01;6.03;;;5.13;;
11086;SDS011;5597;47.588;9.642;2023-08-20T07:52:27;5.83;;;5.23;;
11086;SDS011;5597;47.588;9.642;2023-08-20T07:54:53;6.27;;;5.67;;
11086;SDS011;5597;47.588;9.642;2023-08-20T07:57:19;6.03;;;5.53;;
11086;SDS011;5597;47.588;9.642;2023-08-20T07:59:44;6.07;;;5.50;;
11086;SDS011;5597;47.588;9.642;2023-08-20T08:02:10;6.80;;;6.10;;
11086;SDS011;5597;47.588;9.642;2023-08-20T08:04:35;6.20;;;5.63;;
11086;SDS011;5597;47.588;9.642;2023-08-20T08:07:01;7.73;;;5.87;;
11086;SDS011;5597;47.588;9.642;2023-08-20T08:09:28;7.13;;;6.47;;
11086;SDS011;5597;47.588;9.642;2023-08-20T08:11:55;6.93;;;6.03;;
11086;SDS011;5597;47.588;9.642;2023-08-20T08:14:21;6.70;;;5.50;;
11086;SDS011;5597;47.588;9.642;2023-08-20T08:16:46;6.70;;;6.00;;
11086;SDS011;5597;47.588;9.642;2023-08-20T08:19:12;7.50;;;6.10;;
11086;SDS011;5597;47.588;9.642;2023-08-20T08:21:38;6.20;;;5.60;;
11086;SDS011;5597;47.588;9.642;2023-08-20T08:24:04;6.63;;;5.97;;
11086;SDS011;5597;47.588;9.642;2023-08-20T08:26:30;6.07;;;5.30;;
11086;SDS011;5597;47.588;9.642;2023-08-20T08:29:00;5.53;;;5.13;;
11086;SDS011;5597;47.588;9.642;2023-08-20T08:31:26;5.87;;;5.37;;
11086;SDS011;5597;47.588;9.642;2023-08-20T08:33:51;5.30;;;4.90;;
11086;SDS011;5597;47.588;9.642;2023-08-20T08:36:20;6.80;;;5.33;;
11086;SDS011;5597;47.588;9.642;2023-08-20T08:38:46;5.90;;;5.00;;
11086;SDS011;5597;47.588;9.642;2023-08-20T08:41:12;5.90;;;5.33;;
11086;SDS011;5597;47.588;9.642;2023-08-20T08:43:38;7.13;;;5.20;;
11086;SDS011;5597;47.588;9.642;2023-08-20T08:46:06;5.40;;;4.97;;
11086;SDS011;5597;47.588;9.642;2023-08-20T08:48:34;5.83;;;5.33;;
11086;SDS011;5597;47.588;9.642;2023-08-20T08:51:00;6.03;;;5.40;;
11086;SDS011;5597;47.588;9.642;2023-08-20T08:53:27;5.57;;;5.00;;
11086;SDS011;5597;47.588;9.642;2023-08-20T08:55:53;5.43;;;4.93;;
11086;SDS011;5597;47.588;9.642;2023-08-20T08:58:19;7.50;;;5.40;;
11086;SDS011;5597;47.588;9.642;2023-08-20T09:00:44;6.13;;;4.90;;
11086;SDS011;5597;47.588;9.642;2023-08-20T09:03:10;5.40;;;4.80;;
11086;SDS011;5597;47.588;9.642;2023-08-20T09:05:45;5.73;;;4.93;;
11086;SDS011;5597;47.588;9.642;2023-08-20T09:08:20;6.17;;;4.80;;
11086;SDS011;5597;47.588;9.642;2023-08-20T09:10:49;6.00;;;4.80;;
11086;SDS011;5597;47.588;9.642;2023-08-20T09:13:16;5.83;;;5.13;;
11086;SDS011;5597;47.588;9.642;2023-08-20T09:15:42;5.30;;;4.90;;
11086;SDS011;5597;47.588;9.642;2023-08-20T09:18:10;6.07;;;5.50;;
11086;SDS011;5597;47.588;9.642;2023-08-20T09:20:38;5.97;;;5.13;;
11086;SDS011;5597;47.588;9.642;2023-08-20T09:23:04;6.87;;;5.63;;
11086;SDS011;5597;47.588;9.642;2023-08-20T09:25:36;5.63;;;5.13;;
11086;SDS011;5597;47.588;9.642;2023-08-20T09:28:02;5.93;;;5.23;;
11086;SDS011;5597;47.588;9.642;2023-08-20T09:30:29;5.73;;;5.23;;
11086;SDS011;5597;47.588;9.642;2023-08-20T09:33:04;5.70;;;5.20;;
11086;SDS011;5597;47.588;9.642;2023-08-20T09:35:32;6.03;;;5.43;;
11086;SDS011;5597;47.588;9.642;2023-08-20T09:37:59;6.00;;;5.50;;
11086;SDS011;5597;47.588;9.642;2023-08-20T09:40:26;6.13;;;5.53;;
11086;SDS011;5597;47.588;9.642;2023-08-20T09:42:53;6.20;;;5.30;;
11086;SDS011;5597;47.588;9.642;2023-08-20T09:45:20;5.90;;;5.40;;
11086;SDS011;5597;47.588;9.642;2023-08-20T09:47:45;6.00;;;5.50;;
11086;SDS011;5597;47.588;9.642;2023-08-20T09:50:13;5.77;;;5.17;;
11086;SDS011;5597;47.588;9.642;2023-08-20T09:52:44;6.30;;;5.70;;
11086;SDS011;5597;47.588;9.642;2023-08-20T09:55:21;6.53;;;5.57;;
11086;SDS011;5597;47.588;9.642;2023-08-20T09:57:53;6.20;;;5.53;;
11086;SDS011;5597;47.588;9.642;2023-08-20T10:00:19;6.00;;;5.50;;
11086;SDS011;5597;47.588;9.642;2023-08-20T10:02:46;6.40;;;5.67;;
11086;SDS011;5597;47.588;9.642;2023-08-20T10:05:12;6.70;;;5.80;;
11086;SDS011;5597;47.588;9.642;2023-08-20T10:07:39;5.90;;;5.40;;
11086;SDS011;5597;47.588;9.642;2023-08-20T10:10:07;7.27;;;6.10;;
11086;SDS011;5597;47.588;9.642;2023-08-20T10:12:35;6.47;;;5.87;;
11086;SDS011;5597;47.588;9.642;2023-08-20T10:15:04;6.17;;;5.60;;
11086;SDS011;5597;47.588;9.642;2023-08-20T10:17:30;7.77;;;5.87;;
11086;SDS011;5597;47.588;9.642;2023-08-20T10:19:58;9.63;;;6.43;;
11086;SDS011;5597;47.588;9.642;2023-08-20T10:22:36;6.40;;;5.80;;
11086;SDS011;5597;47.588;9.642;2023-08-20T10:25:12;6.80;;;6.07;;
11086;SDS011;5597;47.588;9.642;2023-08-20T10:27:47;6.63;;;5.93;;
11086;SDS011;5597;47.588;9.642;2023-08-20T10:30:16;8.20;;;6.17;;
11086;SDS011;5597;47.588;9.642;2023-08-20T10:35:20;8.30;;;6.30;;
11086;SDS011;5597;47.588;9.642;2023-08-20T10:38:07;7.17;;;6.30;;
11086;SDS011;5597;47.588;9.642;2023-08-20T10:40:57;8.60;;;6.20;;
11086;SDS011;5597;47.588;9.642;2023-08-20T10:48:44;6.80;;;6.13;;
11086;SDS011;5597;47.588;9.642;2023-08-20T10:51:28;7.20;;;6.20;;
11086;SDS011;5597;47.588;9.642;2023-08-20T10:59:22;6.47;;;5.77;;
11086;SDS011;5597;47.588;9.642;2023-08-20T11:01:51;6.67;;;6.07;;
11086;SDS011;5597;47.588;9.642;2023-08-20T11:04:22;7.57;;;6.30;;
11086;SDS011;5597;47.588;9.642;2023-08-20T11:06:55;7.07;;;6.47;;
11086;SDS011;5597;47.588;9.642;2023-08-20T11:09:22;7.00;;;6.33;;
11086;SDS011;5597;47.588;9.642;2023-08-20T11:11:50;7.83;;;6.93;;
11086;SDS011;5597;47.588;9.642;2023-08-20T11:14:17;6.37;;;5.80;;
11086;SDS011;5597;47.588;9.642;2023-08-20T11:16:43;7.83;;;6.00;;
11086;SDS011;5597;47.588;9.642;2023-08-20T11:19:10;7.27;;;6.27;;
11086;SDS011;5597;47.588;9.642;2023-08-20T11:21:37;7.83;;;6.43;;
11086;SDS011;5597;47.588;9.642;2023-08-20T11:24:04;6.47;;;6.03;;
11086;SDS011;5597;47.588;9.642;2023-08-20T11:26:32;6.73;;;6.17;;
11086;SDS011;5597;47.588;9.642;2023-08-20T11:28:59;6.90;;;6.20;;
11086;SDS011;5597;47.588;9.642;2023-08-20T11:31:25;6.20;;;5.60;;
11086;SDS011;5597;47.588;9.642;2023-08-20T11:33:51;7.00;;;6.30;;
11086;SDS011;5597;47.588;9.642;2023-08-20T11:36:17;6.97;;;5.87;;
11086;SDS011;5597;47.588;9.642;2023-08-20T11:38:51;7.10;;;6.50;;
11086;SDS011;5597;47.588;9.642;2023-08-20T11:41:23;7.10;;;6.40;;
11086;SDS011;5597;47.588;9.642;2023-08-20T11:43:50;6.10;;;5.60;;
11086;SDS011;5597;47.588;9.642;2023-08-20T11:46:21;6.73;;;6.03;;
11086;SDS011;5597;47.588;9.642;2023-08-20T11:49:03;6.17;;;5.67;;
11086;SDS011;5597;47.588;9.642;2023-08-20T11:51:44;7.53;;;5.83;;
11086;SDS011;5597;47.588;9.642;2023-08-20T11:54:13;6.47;;;5.97;;
11086;SDS011;5597;47.588;9.642;2023-08-20T11:56:43;6.43;;;5.70;;
11086;SDS011;5597;47.588;9.642;2023-08-20T11:59:11;6.10;;;5.60;;
11086;SDS011;5597;47.588;9.642;2023-08-20T12:01:37;6.90;;;6.00;;
11086;SDS011;5597;47.588;9.642;2023-08-20T12:04:03;6.30;;;5.80;;
11086;SDS011;5597;47.588;9.642;2023-08-20T12:06:30;7.30;;;6.50;;
11086;SDS011;5597;47.588;9.642;2023-08-20T12:08:58;6.43;;;5.93;;
11086;SDS011;5597;47.588;9.642;2023-08-20T12:11:25;6.57;;;5.97;;
11086;SDS011;5597;47.588;9.642;2023-08-20T12:13:54;6.30;;;5.80;;
11086;SDS011;5597;47.588;9.642;2023-08-20T12:16:23;6.43;;;5.70;;
11086;SDS011;5597;47.588;9.642;2023-08-20T12:18:50;6.22;;;5.63;;
11086;SDS011;5597;47.588;9.642;2023-08-20T12:21:16;6.65;;;6.05;;
11086;SDS011;5597;47.588;9.642;2023-08-20T12:23:42;6.60;;;5.65;;
11086;SDS011;5597;47.588;9.642;2023-08-20T12:26:07;5.47;;;4.97;;
11086;SDS011;5597;47.588;9.642;2023-08-20T12:28:33;6.25;;;5.82;;
11086;SDS011;5597;47.588;9.642;2023-08-20T12:30:59;6.15;;;5.65;;
11086;SDS011;5597;47.588;9.642;2023-08-20T12:33:25;7.10;;;5.60;;
11086;SDS011;5597;47.588;9.642;2023-08-20T12:35:53;6.50;;;5.90;;
11086;SDS011;5597;47.588;9.642;2023-08-20T12:38:20;6.43;;;5.82;;
11086;SDS011;5597;47.588;9.642;2023-08-20T12:40:46;6.60;;;6.00;;
11086;SDS011;5597;47.588;9.642;2023-08-20T12:43:11;5.70;;;5.25;;
11086;SDS011;5597;47.588;9.642;2023-08-20T12:45:37;6.15;;;5.57;;
11086;SDS011;5597;47.588;9.642;2023-08-20T12:48:03;7.32;;;5.70;;
11086;SDS011;5597;47.588;9.642;2023-08-20T12:50:29;6.07;;;5.43;;
11086;SDS011;5597;47.588;9.642;2023-08-20T12:52:55;6.45;;;5.43;;
11086;SDS011;5597;47.588;9.642;2023-08-20T12:55:21;5.93;;;5.13;;
11086;SDS011;5597;47.588;9.642;2023-08-20T12:57:52;5.85;;;5.40;;
11086;SDS011;5597;47.588;9.642;2023-08-20T13:00:19;5.95;;;5.35;;
11086;SDS011;5597;47.588;9.642;2023-08-20T13:02:46;8.52;;;5.45;;
11086;SDS011;5597;47.588;9.642;2023-08-20T13:05:11;8.20;;;5.70;;
11086;SDS011;5597;47.588;9.642;2023-08-20T13:07:38;6.13;;;5.53;;
11086;SDS011;5597;47.588;9.642;2023-08-20T13:10:04;6.10;;;5.60;;
11086;SDS011;5597;47.588;9.642;2023-08-20T13:12:33;6.15;;;5.55;;
11086;SDS011;5597;47.588;9.642;2023-08-20T13:15:04;5.88;;;5.30;;
11086;SDS011;5597;47.588;9.642;2023-08-20T13:17:32;5.90;;;5.32;;
11086;SDS011;5597;47.588;9.642;2023-08-20T13:20:04;7.30;;;5.03;;
11086;SDS011;5597;47.588;9.642;2023-08-20T13:22:32;6.30;;;5.18;;
11086;SDS011;5597;47.588;9.642;2023-08-20T13:25:08;6.13;;;5.55;;
11086;SDS011;5597;47.588;9.642;2023-08-20T13:27:36;5.43;;;4.93;;
11086;SDS011;5597;47.588;9.642;2023-08-20T13:30:02;5.20;;;4.70;;
11086;SDS011;5597;47.588;9.642;2023-08-20T13:32:36;5.80;;;5.22;;
11086;SDS011;5597;47.588;9.642;2023-08-20T13:35:05;5.30;;;4.90;;
11086;SDS011;5597;47.588;9.642;2023-08-20T13:37:40;5.82;;;5.20;;
11086;SDS011;5597;47.588;9.642;2023-08-20T13:40:08;5.18;;;4.78;;
11086;SDS011;5597;47.588;9.642;2023-08-20T13:42:38;5.75;;;5.03;;
11086;SDS011;5597;47.588;9.642;2023-08-20T13:45:06;5.50;;;4.97;;
11086;SDS011;5597;47.588;9.642;2023-08-20T13:47:44;5.25;;;4.75;;
11086;SDS011;5597;47.588;9.642;2023-08-20T13:50:10;6.05;;;4.75;;
11086;SDS011;5597;47.588;9.642;2023-08-20T13:52:47;5.32;;;4.40;;
11086;SDS011;5597;47.588;9.642;2023-08-20T13:55:15;5.10;;;4.70;;
11086;SDS011;5597;47.588;9.642;2023-08-20T13:57:46;5.40;;;4.90;;
11086;SDS011;5597;47.588;9.642;2023-08-20T14:00:12;5.60;;;5.05;;
11086;SDS011;5597;47.588;9.642;2023-08-20T14:02:53;6.60;;;4.63;;
11086;SDS011;5597;47.588;9.642;2023-08-20T14:05:21;6.10;;;5.15;;
11086;SDS011;5597;47.588;9.642;2023-08-20T14:07:47;5.80;;;5.10;;
11086;SDS011;5597;47.588;9.642;2023-08-20T14:10:13;4.80;;;4.40;;
11086;SDS011;5597;47.588;9.642;2023-08-20T14:12:38;5.07;;;4.68;;
11086;SDS011;5597;47.588;9.642;2023-08-20T14:15:04;5.53;;;5.03;;
11086;SDS011;5597;47.588;9.642;2023-08-20T14:17:30;5.43;;;4.75;;
11086;SDS011;5597;47.588;9.642;2023-08-20T14:19:55;5.88;;;4.72;;
11086;SDS011;5597;47.588;9.642;2023-08-20T14:22:21;5.82;;;4.60;;
11086;SDS011;5597;47.588;9.642;2023-08-20T14:24:47;5.47;;;4.85;;
11086;SDS011;5597;47.588;9.642;2023-08-20T14:27:12;4.82;;;4.43;;
11086;SDS011;5597;47.588;9.642;2023-08-20T14:29:38;6.10;;;4.80;;
11086;SDS011;5597;47.588;9.642;2023-08-20T14:32:04;4.88;;;4.35;;
11086;SDS011;5597;47.588;9.642;2023-08-20T14:34:29;5.10;;;4.63;;
11086;SDS011;5597;47.588;9.642;2023-08-20T14:36:55;4.78;;;4.13;;
11086;SDS011;5597;47.588;9.642;2023-08-20T14:39:21;4.68;;;4.28;;
11086;SDS011;5597;47.588;9.642;2023-08-20T14:41:46;7.05;;;4.75;;
11086;SDS011;5597;47.588;9.642;2023-08-20T14:44:12;4.97;;;4.35;;
11086;SDS011;5597;47.588;9.642;2023-08-20T14:46:37;4.47;;;4.13;;
11086;SDS011;5597;47.588;9.642;2023-08-20T14:49:03;4.40;;;4.00;;
11086;SDS011;5597;47.588;9.642;2023-08-20T14:51:29;4.57;;;4.18;;
11086;SDS011;5597;47.588;9.642;2023-08-20T14:53:54;4.50;;;4.13;;
11086;SDS011;5597;47.588;9.642;2023-08-20T14:56:20;4.82;;;4.43;;
11086;SDS011;5597;47.588;9.642;2023-08-20T14:58:45;4.88;;;4.38;;
11086;SDS011;5597;47.588;9.642;2023-08-20T15:01:11;4.40;;;4.03;;
11086;SDS011;5597;47.588;9.642;2023-08-20T15:03:37;4.35;;;3.92;;
11086;SDS011;5597;47.588;9.642;2023-08-20T15:06:04;5.38;;;4.15;;
11086;SDS011;5597;47.588;9.642;2023-08-20T15:08:30;4.35;;;3.95;;
11086;SDS011;5597;47.588;9.642;2023-08-20T15:10:56;4.50;;;4.10;;
11086;SDS011;5597;47.588;9.642;2023-08-20T15:13:23;4.05;;;3.75;;
11086;SDS011;5597;47.588;9.642;2023-08-20T15:15:53;4.45;;;4.05;;
11086;SDS011;5597;47.588;9.642;2023-08-20T15:18:19;5.00;;;4.47;;
11086;SDS011;5597;47.588;9.642;2023-08-20T15:20:45;4.60;;;4.20;;
11086;SDS011;5597;47.588;9.642;2023-08-20T15:23:17;6.07;;;4.18;;